Time;durP1;ratioP1;P1;durP2;ratioP2;P2;SDS_P1;SDS_P2;PMS_P1;PMS_P2;Temp;Humidity;BMP_temperature;BMP_pressure;BME280_temperature;BME280_humidity;BME280_pressure;Samples;Min_cycle;Max_cycle;Signal;HPM_P1;HPM_P2
2022/09/02 00:02:49;;;;;;;10.73;5.93;;;;;;;;;;6216139;28;20087;-53
2022/09/02 00:05:50;;;;;;;13.98;5.47;;;;;;;;;;6221190;28;20073;-53
2022/09/02 00:08:50;;;;;;;15.35;5.47;;;;;;;;;;6222839;28;20469;-54
2022/09/02 00:11:52;;;;;;;12.05;5.40;;;;;;;;;;6208803;28;20564;-55
2022/09/02 00:14:53;;;;;;;12.82;5.68;;;;;;;;;;6210855;28;20034;-54
2022/09/02 00:17:54;;;;;;;12.88;5.57;;;;;;;;;;6210160;28;20133;-52
2022/09/02 00:20:54;;;;;;;16.58;6.25;;;;;;;;;;6210047;28;20050;-53
2022/09/02 00:23:55;;;;;;;13.18;5.82;;;;;;;;;;6206486;28;20408;-53
2022/09/02 00:26:56;;;;;;;13.55;5.60;;;;;;;;;;6208931;28;20045;-55
2022/09/02 00:29:57;;;;;;;10.57;5.35;;;;;;;;;;6210520;28;20034;-55
2022/09/02 00:32:58;;;;;;;13.00;5.88;;;;;;;;;;6213288;28;20727;-55
2022/09/02 00:36:00;;;;;;;12.93;6.30;;;;;;;;;;6209536;28;20133;-55
2022/09/02 00:39:01;;;;;;;11.13;5.60;;;;;;;;;;6210510;28;20054;-52
2022/09/02 00:42:02;;;;;;;13.80;5.75;;;;;;;;;;6212497;28;20548;-51
2022/09/02 00:45:05;;;;;;;12.20;5.55;;;;;;;;;;6207621;28;20144;-55
2022/09/02 00:48:06;;;;;;;14.13;6.15;;;;;;;;;;6210676;28;20038;-54
2022/09/02 00:51:08;;;;;;;11.85;5.45;;;;;;;;;;6212363;28;20058;-53
2022/09/02 00:54:11;;;;;;;13.93;6.38;;;;;;;;;;6212826;28;20054;-55
2022/09/02 00:57:18;;;;;;;13.02;6.07;;;;;;;;;;6209985;28;20065;-54
2022/09/02 01:00:28;;;;;;;11.63;5.65;;;;;;;;;;6213758;28;20518;-54
2022/09/02 01:03:31;;;;;;;12.18;5.60;;;;;;;;;;6211939;28;20073;-54
2022/09/02 01:06:32;;;;;;;13.80;5.75;;;;;;;;;;6214498;28;20124;-52
2022/09/02 01:09:32;;;;;;;12.50;5.97;;;;;;;;;;6212550;28;20411;-55
2022/09/02 01:12:34;;;;;;;13.88;6.13;;;;;;;;;;6214075;28;20046;-54
2022/09/02 01:15:39;;;;;;;13.45;5.75;;;;;;;;;;6212682;28;20070;-54
2022/09/02 01:18:43;;;;;;;16.02;5.72;;;;;;;;;;6192888;28;20052;-54
2022/09/02 01:21:55;;;;;;;12.68;6.10;;;;;;;;;;6211203;28;20050;-52
2022/09/02 01:25:01;;;;;;;11.90;5.47;;;;;;;;;;6210438;28;20096;-53
2022/09/02 01:28:14;;;;;;;12.23;5.40;;;;;;;;;;6211843;28;20048;-54
2022/09/02 01:31:15;;;;;;;13.07;5.88;;;;;;;;;;6212294;28;20140;-55
2022/09/02 01:34:16;;;;;;;18.50;5.75;;;;;;;;;;6212841;28;20436;-55
2022/09/02 01:37:17;;;;;;;12.30;5.85;;;;;;;;;;6214091;28;20053;-52
2022/09/02 01:40:18;;;;;;;14.27;6.50;;;;;;;;;;6214911;28;20060;-52
2022/09/02 01:43:22;;;;;;;13.80;6.55;;;;;;;;;;6213928;28;20323;-52
2022/09/02 01:46:23;;;;;;;12.65;6.47;;;;;;;;;;6213381;28;20492;-54
2022/09/02 01:49:23;;;;;;;11.23;5.63;;;;;;;;;;6213323;28;20046;-52
2022/09/02 01:52:26;;;;;;;13.15;5.93;;;;;;;;;;6214469;28;20073;-56
2022/09/02 01:55:26;;;;;;;15.50;6.07;;;;;;;;;;6211979;28;20492;-55
2022/09/02 01:58:27;;;;;;;14.90;5.78;;;;;;;;;;6213117;28;20152;-53
2022/09/02 02:01:28;;;;;;;15.80;6.55;;;;;;;;;;6213135;28;20057;-53
2022/09/02 02:04:29;;;;;;;17.63;6.30;;;;;;;;;;6216113;28;20060;-54
2022/09/02 02:07:29;;;;;;;14.23;5.70;;;;;;;;;;6217022;28;20100;-53
2022/09/02 02:10:30;;;;;;;12.43;6.20;;;;;;;;;;6211567;28;20042;-53
2022/09/02 02:13:32;;;;;;;15.00;7.30;;;;;;;;;;6213031;28;20449;-56
2022/09/02 02:16:32;;;;;;;11.77;6.28;;;;;;;;;;6212007;28;20046;-51
2022/09/02 02:19:33;;;;;;;17.50;6.40;;;;;;;;;;6214643;28;20076;-54
2022/09/02 02:22:34;;;;;;;19.65;7.25;;;;;;;;;;6211788;28;20419;-53
2022/09/02 02:25:35;;;;;;;12.63;6.45;;;;;;;;;;6212004;28;20054;-52
2022/09/02 02:28:36;;;;;;;15.23;6.78;;;;;;;;;;6210982;28;20548;-53
2022/09/02 02:31:37;;;;;;;17.27;6.72;;;;;;;;;;6210835;28;20385;-54
2022/09/02 02:34:38;;;;;;;15.30;6.28;;;;;;;;;;6213644;28;20145;-55
2022/09/02 02:37:38;;;;;;;18.37;6.80;;;;;;;;;;6212232;28;20120;-55
2022/09/02 02:40:39;;;;;;;16.80;7.30;;;;;;;;;;6211332;28;20139;-55
2022/09/02 02:43:40;;;;;;;19.90;6.70;;;;;;;;;;6209822;28;20137;-53
2022/09/02 02:46:41;;;;;;;13.90;6.32;;;;;;;;;;6211754;28;20169;-55
2022/09/02 02:49:43;;;;;;;13.10;6.57;;;;;;;;;;6210186;28;20771;-53
2022/09/02 02:52:44;;;;;;;15.63;6.65;;;;;;;;;;6211622;28;20057;-54
2022/09/02 02:55:45;;;;;;;13.43;6.23;;;;;;;;;;6209415;28;20049;-53
2022/09/02 02:58:45;;;;;;;13.93;6.50;;;;;;;;;;6213490;28;20049;-52
2022/09/02 03:01:46;;;;;;;14.95;6.85;;;;;;;;;;6215715;28;20145;-50
2022/09/02 03:04:48;;;;;;;17.20;6.70;;;;;;;;;;6217992;28;20042;-53
2022/09/02 03:07:49;;;;;;;14.15;6.60;;;;;;;;;;6216894;28;20053;-54
2022/09/02 03:10:53;;;;;;;10.60;5.80;;;;;;;;;;6211217;28;20050;-52
2022/09/02 03:13:54;;;;;;;15.13;5.95;;;;;;;;;;6211172;28;20076;-52
2022/09/02 03:16:54;;;;;;;16.05;7.70;;;;;;;;;;6211074;28;20046;-50
2022/09/02 03:19:58;;;;;;;14.70;6.80;;;;;;;;;;6212094;28;20068;-55
2022/09/02 03:22:59;;;;;;;16.88;7.78;;;;;;;;;;6210080;28;20061;-54
2022/09/02 03:25:59;;;;;;;17.13;9.80;;;;;;;;;;6210103;28;20478;-52
2022/09/02 03:29:00;;;;;;;13.50;6.70;;;;;;;;;;6211026;28;20041;-52
2022/09/02 03:32:01;;;;;;;13.57;6.07;;;;;;;;;;6210808;28;20058;-52
2022/09/02 03:35:07;;;;;;;15.55;5.82;;;;;;;;;;6210944;28;20405;-54
2022/09/02 03:38:08;;;;;;;12.38;6.30;;;;;;;;;;6211615;28;20060;-55
2022/09/02 03:41:09;;;;;;;14.98;6.15;;;;;;;;;;6213300;28;20040;-52
2022/09/02 03:44:10;;;;;;;12.52;5.93;;;;;;;;;;6212783;28;20050;-52
2022/09/02 03:47:12;;;;;;;18.98;5.68;;;;;;;;;;6210128;28;20045;-52
2022/09/02 03:50:13;;;;;;;12.68;5.93;;;;;;;;;;6209270;28;20058;-53
2022/09/02 03:53:14;;;;;;;10.70;5.78;;;;;;;;;;6211480;28;22129;-52
2022/09/02 03:56:15;;;;;;;12.02;5.55;;;;;;;;;;6210295;28;20447;-52
2022/09/02 03:59:16;;;;;;;14.90;5.68;;;;;;;;;;6210473;28;20050;-55
2022/09/02 04:02:17;;;;;;;11.38;5.10;;;;;;;;;;6211095;28;20662;-52
2022/09/02 04:05:17;;;;;;;14.27;5.85;;;;;;;;;;6210300;28;20046;-54
2022/09/02 04:08:19;;;;;;;18.02;5.55;;;;;;;;;;6209749;28;20057;-53
2022/09/02 04:11:22;;;;;;;15.70;6.68;;;;;;;;;;6208648;28;20063;-53
2022/09/02 04:14:22;;;;;;;20.63;7.03;;;;;;;;;;6210661;28;20046;-55
2022/09/02 04:17:23;;;;;;;16.20;5.82;;;;;;;;;;6211986;28;20069;-54
2022/09/02 04:20:23;;;;;;;18.63;7.60;;;;;;;;;;6221364;28;20552;-53
2022/09/02 04:23:24;;;;;;;14.02;6.13;;;;;;;;;;6209269;28;20574;-51
2022/09/02 04:26:25;;;;;;;9.20;5.38;;;;;;;;;;6207149;28;20527;-55
2022/09/02 04:29:25;;;;;;;12.45;5.50;;;;;;;;;;6207187;28;20045;-52
2022/09/02 04:32:26;;;;;;;12.25;6.00;;;;;;;;;;6207237;28;20065;-52
2022/09/02 04:35:26;;;;;;;11.98;5.70;;;;;;;;;;6208589;28;21098;-55
2022/09/02 04:38:27;;;;;;;14.00;6.07;;;;;;;;;;6209440;28;20144;-52
2022/09/02 04:41:29;;;;;;;15.63;5.53;;;;;;;;;;6211709;28;20033;-54
2022/09/02 04:44:29;;;;;;;16.92;5.75;;;;;;;;;;6209936;28;20124;-53
2022/09/02 04:47:30;;;;;;;13.00;5.93;;;;;;;;;;6209612;28;20464;-53
2022/09/02 04:50:31;;;;;;;19.08;6.30;;;;;;;;;;6206250;28;20136;-54
2022/09/02 04:53:33;;;;;;;20.05;7.57;;;;;;;;;;6212255;28;20050;-56
2022/09/02 04:56:33;;;;;;;19.38;7.20;;;;;;;;;;6211931;28;20451;-56
2022/09/02 04:59:35;;;;;;;23.20;7.97;;;;;;;;;;6215128;28;20049;-56
2022/09/02 05:02:36;;;;;;;19.73;6.70;;;;;;;;;;6215116;28;20088;-53
2022/09/02 05:05:37;;;;;;;21.67;6.93;;;;;;;;;;6213379;28;20070;-53
2022/09/02 05:08:41;;;;;;;13.02;6.40;;;;;;;;;;6221408;28;20076;-52
2022/09/02 05:11:41;;;;;;;18.15;6.93;;;;;;;;;;6208771;28;20548;-53
2022/09/02 05:14:42;;;;;;;17.33;6.43;;;;;;;;;;6206956;28;20058;-52
2022/09/02 05:17:43;;;;;;;18.83;7.07;;;;;;;;;;6208841;28;20050;-53
2022/09/02 05:20:43;;;;;;;15.45;6.70;;;;;;;;;;6212077;28;20046;-52
2022/09/02 05:23:44;;;;;;;14.38;6.40;;;;;;;;;;6207463;28;20046;-53
2022/09/02 05:26:45;;;;;;;23.17;7.40;;;;;;;;;;6209756;28;20050;-51
2022/09/02 05:29:45;;;;;;;18.48;7.78;;;;;;;;;;6210371;28;20088;-54
2022/09/02 05:32:47;;;;;;;23.92;7.72;;;;;;;;;;6213671;28;20050;-53
2022/09/02 05:35:48;;;;;;;;;;;;;;;;;;6214229;28;20045;-52
2022/09/02 05:38:50;;;;;;;21.60;7.63;;;;;;;;;;6226049;28;20007;-55
2022/09/02 05:41:51;;;;;;;18.98;7.72;;;;;;;;;;6217225;28;20066;-52
2022/09/02 05:44:51;;;;;;;14.55;7.20;;;;;;;;;;6217027;28;20053;-53
2022/09/02 05:47:52;;;;;;;23.73;6.97;;;;;;;;;;6229124;28;20046;-51
2022/09/02 05:50:53;;;;;;;17.70;7.00;;;;;;;;;;6214978;28;20104;-52
2022/09/02 05:53:55;;;;;;;19.33;7.00;;;;;;;;;;6216576;28;20042;-51
2022/09/02 05:56:59;;;;;;;16.73;6.85;;;;;;;;;;6216464;28;20595;-54
2022/09/02 05:59:59;;;;;;;11.93;5.90;;;;;;;;;;6218163;28;20048;-51
2022/09/02 06:03:00;;;;;;;12.70;5.53;;;;;;;;;;6218614;28;20069;-55
2022/09/02 06:06:01;;;;;;;14.68;5.57;;;;;;;;;;6218253;28;20440;-54
2022/09/02 06:09:04;;;;;;;24.60;6.70;;;;;;;;;;6218388;28;20081;-55
2022/09/02 06:12:05;;;;;;;12.95;5.65;;;;;;;;;;6217973;28;20394;-54
2022/09/02 06:15:06;;;;;;;17.05;7.35;;;;;;;;;;6218570;28;20173;-55
2022/09/02 06:18:06;;;;;;;19.60;6.45;;;;;;;;;;6216964;28;20052;-53
2022/09/02 06:21:07;;;;;;;14.55;5.85;;;;;;;;;;6216141;28;20050;-53
2022/09/02 06:24:09;;;;;;;16.58;6.35;;;;;;;;;;6216732;28;20049;-51
2022/09/02 06:27:10;;;;;;;17.13;6.28;;;;;;;;;;6218393;28;20073;-51
2022/09/02 06:30:11;;;;;;;18.50;6.47;;;;;;;;;;6217642;28;20101;-55
2022/09/02 06:33:12;;;;;;;13.48;5.65;;;;;;;;;;6211863;28;20077;-54
2022/09/02 06:36:15;;;;;;;16.88;5.72;;;;;;;;;;6209386;28;20064;-50
2022/09/02 06:39:18;;;;;;;13.95;5.70;;;;;;;;;;6211061;28;20054;-52
2022/09/02 06:42:19;;;;;;;14.77;5.55;;;;;;;;;;6210558;28;20046;-52
2022/09/02 06:45:23;;;;;;;13.18;5.47;;;;;;;;;;6212300;28;20081;-53
2022/09/02 06:48:23;;;;;;;13.13;5.80;;;;;;;;;;6211537;28;20046;-54
2022/09/02 06:51:31;;;;;;;14.63;5.50;;;;;;;;;;6210609;28;20145;-54
2022/09/02 06:54:31;;;;;;;17.60;6.18;;;;;;;;;;6209928;28;20072;-54
2022/09/02 06:57:32;;;;;;;13.70;6.25;;;;;;;;;;6211472;28;20050;-54
2022/09/02 07:00:34;;;;;;;15.60;6.35;;;;;;;;;;6209820;28;20472;-54
2022/09/02 07:06:55;;;;;;;15.00;6.15;;;;;;;;;;6209459;28;20042;-56
2022/09/02 07:09:55;;;;;;;18.73;7.10;;;;;;;;;;6208061;28;20077;-55
2022/09/02 07:12:56;;;;;;;17.58;6.05;;;;;;;;;;6209866;28;20037;-56
2022/09/02 07:15:57;;;;;;;18.92;6.18;;;;;;;;;;6209165;28;20129;-55
2022/09/02 07:19:00;;;;;;;19.48;6.65;;;;;;;;;;6209523;28;20401;-54
2022/09/02 07:22:05;;;;;;;17.48;5.50;;;;;;;;;;6208761;28;20508;-57
2022/09/02 07:25:07;;;;;;;17.10;5.70;;;;;;;;;;6207992;28;20156;-54
2022/09/02 07:28:09;;;;;;;20.67;5.20;;;;;;;;;;6214991;28;20137;-54
2022/09/02 07:31:10;;;;;;;12.23;4.80;;;;;;;;;;6215635;28;20084;-56
2022/09/02 07:34:11;;;;;;;22.42;6.30;;;;;;;;;;6216866;28;20069;-55
2022/09/02 07:37:12;;;;;;;15.90;6.43;;;;;;;;;;6212303;28;20096;-56
2022/09/02 07:40:14;;;;;;;14.85;5.72;;;;;;;;;;6211200;28;20061;-56
2022/09/02 07:43:14;;;;;;;19.03;7.53;;;;;;;;;;6210240;28;20389;-56
2022/09/02 07:46:15;;;;;;;23.17;6.10;;;;;;;;;;6210317;28;20339;-55
2022/09/02 07:49:16;;;;;;;16.25;7.20;;;;;;;;;;6208587;28;20054;-54
2022/09/02 07:52:17;;;;;;;14.98;6.25;;;;;;;;;;6208999;28;20061;-55
2022/09/02 07:55:18;;;;;;;14.60;5.75;;;;;;;;;;6209609;28;20795;-56
2022/09/02 07:58:21;;;;;;;14.98;4.63;;;;;;;;;;6208110;28;20049;-57
2022/09/02 08:01:21;;;;;;;12.45;5.05;;;;;;;;;;6209518;28;20050;-56
2022/09/02 08:04:23;;;;;;;12.32;4.78;;;;;;;;;;6209631;28;20048;-56
2022/09/02 08:07:24;;;;;;;8.55;4.28;;;;;;;;;;6209035;28;20046;-56
2022/09/02 08:10:28;;;;;;;10.88;3.80;;;;;;;;;;6209557;28;20061;-55
2022/09/02 08:13:29;;;;;;;12.57;4.20;;;;;;;;;;6206786;28;21090;-53
2022/09/02 08:16:29;;;;;;;18.48;5.10;;;;;;;;;;6209593;28;20046;-56
2022/09/02 08:19:30;;;;;;;11.38;4.38;;;;;;;;;;6208768;28;20507;-53
2022/09/02 08:22:35;;;;;;;10.48;4.10;;;;;;;;;;6209658;28;20046;-57
2022/09/02 08:25:35;;;;;;;13.63;4.50;;;;;;;;;;6209054;28;20061;-56
2022/09/02 08:28:38;;;;;;;10.93;4.82;;;;;;;;;;6207729;28;20495;-56
2022/09/02 08:31:38;;;;;;;12.07;3.97;;;;;;;;;;6208500;28;20062;-56
2022/09/02 08:34:39;;;;;;;8.60;3.60;;;;;;;;;;6209954;28;20080;-56
2022/09/02 08:37:39;;;;;;;7.57;2.97;;;;;;;;;;6209492;28;20078;-55
2022/09/02 08:40:41;;;;;;;9.13;3.58;;;;;;;;;;6208775;28;20416;-56
2022/09/02 08:43:43;;;;;;;;;;;;;;;;;;6212688;28;20919;-55
2022/09/02 08:46:43;;;;;;;6.72;3.15;;;;;;;;;;6215382;28;20031;-56
2022/09/02 08:49:49;;;;;;;6.85;2.92;;;;;;;;;;6215088;28;20042;-57
2022/09/02 08:53:05;;;;;;;4.93;2.20;;;;;;;;;;6215138;28;20129;-55
2022/09/02 08:56:09;;;;;;;6.75;2.60;;;;;;;;;;6215418;28;20583;-57
2022/09/02 08:59:11;;;;;;;7.15;2.53;;;;;;;;;;6214746;28;20074;-54
2022/09/02 09:02:55;;;;;;;8.52;2.42;;;;;;;;;;6215427;28;20050;-56
2022/09/02 09:06:06;;;;;;;5.55;2.50;;;;;;;;;;6215581;28;20140;-55
2022/09/02 09:09:30;;;;;;;7.13;2.33;;;;;;;;;;6215002;28;20038;-53
2022/09/02 09:12:40;;;;;;;6.88;2.47;;;;;;;;;;6215425;28;20137;-57
2022/09/02 09:15:56;;;;;;;8.38;2.20;;;;;;;;;;6212798;28;20100;-55
2022/09/02 09:19:23;;;;;;;10.10;2.60;;;;;;;;;;6212949;28;20460;-55
2022/09/02 09:22:30;;;;;;;7.00;2.28;;;;;;;;;;6220263;28;20072;-56
2022/09/02 09:25:31;;;;;;;7.70;3.20;;;;;;;;;;6219038;28;20076;-55
2022/09/02 09:28:39;;;;;;;11.23;3.75;;;;;;;;;;6219158;28;20038;-56
2022/09/02 09:31:40;;;;;;;8.15;2.67;;;;;;;;;;6219990;28;20069;-53
2022/09/02 09:34:58;;;;;;;4.97;2.43;;;;;;;;;;6218519;28;20081;-57
2022/09/02 09:38:11;;;;;;;7.82;2.80;;;;;;;;;;6211942;28;20136;-57
2022/09/02 09:41:19;;;;;;;5.80;2.13;;;;;;;;;;6212276;28;20049;-55
2022/09/02 09:44:45;;;;;;;6.50;2.42;;;;;;;;;;6213566;28;20056;-57
2022/09/02 09:48:28;;;;;;;8.80;2.70;;;;;;;;;;6212105;28;20137;-56
2022/09/02 09:51:29;;;;;;;9.43;2.60;;;;;;;;;;6201268;28;20070;-56
2022/09/02 09:54:30;;;;;;;5.43;2.42;;;;;;;;;;6194643;28;20538;-55
2022/09/02 09:57:31;;;;;;;6.40;2.50;;;;;;;;;;6194296;28;20133;-56
2022/09/02 10:00:32;;;;;;;8.63;2.67;;;;;;;;;;6195016;28;20053;-57
2022/09/02 10:03:33;;;;;;;5.82;2.30;;;;;;;;;;6194207;28;20081;-56
2022/09/02 10:06:37;;;;;;;6.35;2.85;;;;;;;;;;6194413;28;20042;-57
2022/09/02 10:09:37;;;;;;;7.78;2.70;;;;;;;;;;6194515;28;20573;-57
2022/09/02 10:12:38;;;;;;;9.15;2.28;;;;;;;;;;6194261;28;20041;-57
2022/09/02 10:16:10;;;;;;;6.55;2.70;;;;;;;;;;6194412;28;20058;-57
2022/09/02 10:19:37;;;;;;;6.57;1.97;;;;;;;;;;6193861;28;20050;-55
2022/09/02 10:22:56;;;;;;;5.63;2.20;;;;;;;;;;6179512;28;20406;-56
2022/09/02 10:26:28;;;;;;;8.77;2.28;;;;;;;;;;6193678;28;20077;-54
2022/09/02 10:29:53;;;;;;;6.05;1.95;;;;;;;;;;6193174;28;20052;-53
2022/09/02 10:33:00;;;;;;;7.07;2.60;;;;;;;;;;6192947;28;20053;-53
2022/09/02 10:36:27;;;;;;;5.22;2.17;;;;;;;;;;6193672;28;20038;-55
2022/09/02 10:39:46;;;;;;;10.13;3.40;;;;;;;;;;6196042;28;20480;-55
2022/09/02 10:42:49;;;;;;;6.30;2.60;;;;;;;;;;6186419;28;20080;-56
2022/09/02 10:45:55;;;;;;;6.43;2.22;;;;;;;;;;6185120;28;20054;-56
2022/09/02 10:49:18;;;;;;;6.13;2.15;;;;;;;;;;6187415;28;20125;-55
2022/09/02 10:52:50;;;;;;;5.43;2.10;;;;;;;;;;6211709;28;20083;-54
2022/09/02 10:55:57;;;;;;;;;;;;;;;;;;6212911;28;20500;-55
2022/09/02 10:59:09;;;;;;;4.57;1.90;;;;;;;;;;6217789;28;19921;-54
2022/09/02 11:02:26;;;;;;;7.10;2.35;;;;;;;;;;6214893;28;21351;-54
2022/09/02 11:05:37;;;;;;;7.78;2.58;;;;;;;;;;6217408;28;20052;-56
2022/09/02 11:08:44;;;;;;;12.45;3.20;;;;;;;;;;6220626;28;20053;-53
2022/09/02 11:11:59;;;;;;;6.82;3.30;;;;;;;;;;6209836;28;20139;-54
2022/09/02 11:15:03;;;;;;;4.60;2.13;;;;;;;;;;6206084;28;20084;-55
2022/09/02 11:18:29;;;;;;;8.10;3.55;;;;;;;;;;6207150;28;20138;-52
2022/09/02 11:21:47;;;;;;;6.25;2.53;;;;;;;;;;6195189;28;20140;-56
2022/09/02 11:25:01;;;;;;;4.93;2.00;;;;;;;;;;6208533;28;20927;-56
2022/09/02 11:28:14;;;;;;;8.50;2.60;;;;;;;;;;6206761;28;20499;-55
2022/09/02 11:31:23;;;;;;;5.90;2.15;;;;;;;;;;6205602;28;21591;-55
2022/09/02 11:34:36;;;;;;;6.38;2.17;;;;;;;;;;6214724;28;20499;-56
2022/09/02 11:37:47;;;;;;;3.45;1.50;;;;;;;;;;6220088;28;20108;-54
2022/09/02 11:41:13;;;;;;;4.07;1.50;;;;;;;;;;6220214;28;20540;-56
2022/09/02 11:44:33;;;;;;;3.80;1.98;;;;;;;;;;6222656;28;20076;-55
2022/09/02 11:47:42;;;;;;;8.93;3.67;;;;;;;;;;6219029;28;20155;-55
2022/09/02 11:51:30;;;;;;;7.05;2.90;;;;;;;;;;6207102;28;20127;-56
2022/09/02 11:54:40;;;;;;;6.40;2.03;;;;;;;;;;6208998;28;20496;-57
2022/09/02 11:57:42;;;;;;;5.15;1.90;;;;;;;;;;6212542;28;20189;-56
2022/09/02 12:00:55;;;;;;;4.47;1.88;;;;;;;;;;6212617;28;20171;-57
2022/09/02 12:04:18;;;;;;;5.10;1.85;;;;;;;;;;6216571;28;20528;-57
2022/09/02 12:07:19;;;;;;;6.70;2.80;;;;;;;;;;6215601;28;20136;-55
2022/09/02 12:10:47;;;;;;;8.00;2.20;;;;;;;;;;6214399;28;20045;-54
2022/09/02 12:13:48;;;;;;;4.68;2.10;;;;;;;;;;6216164;28;20144;-55
2022/09/02 12:17:02;;;;;;;5.10;2.27;;;;;;;;;;6215460;28;20524;-56
2022/09/02 12:20:07;;;;;;;5.43;2.40;;;;;;;;;;6211309;28;21051;-56
2022/09/02 12:23:28;;;;;;;13.23;2.40;;;;;;;;;;6214661;28;20057;-57
2022/09/02 12:26:52;;;;;;;10.82;2.30;;;;;;;;;;6215410;28;20568;-56
2022/09/02 12:29:54;;;;;;;4.68;2.05;;;;;;;;;;6214963;28;20504;-56
2022/09/02 12:33:01;;;;;;;;;;;;;;;;;;6213294;28;20129;-57
2022/09/02 12:36:03;;;;;;;5.45;2.10;;;;;;;;;;6208897;28;20003;-54
2022/09/02 12:39:23;;;;;;;6.47;1.90;;;;;;;;;;6205046;28;20532;-55
2022/09/02 12:42:30;;;;;;;8.73;2.53;;;;;;;;;;6204286;28;20062;-56
2022/09/02 12:45:32;;;;;;;11.25;3.67;;;;;;;;;;6202558;28;20128;-55
2022/09/02 12:48:41;;;;;;;7.60;3.47;;;;;;;;;;6203011;28;20073;-55
2022/09/02 12:51:53;;;;;;;8.95;2.28;;;;;;;;;;6203571;28;20050;-56
2022/09/02 12:54:54;;;;;;;6.63;2.25;;;;;;;;;;6204615;28;20097;-56
2022/09/02 12:58:11;;;;;;;4.17;2.00;;;;;;;;;;6211312;28;20055;-55
2022/09/02 13:01:33;;;;;;;6.05;1.98;;;;;;;;;;6208047;28;20053;-56
2022/09/02 13:04:59;;;;;;;5.18;2.30;;;;;;;;;;6207037;28;20064;-56
2022/09/02 13:08:18;;;;;;;5.32;2.10;;;;;;;;;;6208946;28;20053;-56
2022/09/02 13:11:31;;;;;;;7.60;2.10;;;;;;;;;;6209808;28;20064;-56
2022/09/02 13:14:52;;;;;;;6.13;2.00;;;;;;;;;;6207564;28;20046;-55
2022/09/02 13:18:15;;;;;;;5.38;2.28;;;;;;;;;;6209628;28;20060;-55
2022/09/02 13:21:26;;;;;;;9.00;2.33;;;;;;;;;;6214412;28;20057;-56
2022/09/02 13:24:39;;;;;;;5.78;2.08;;;;;;;;;;6209520;28;20140;-57
2022/09/02 13:28:01;;;;;;;5.18;2.15;;;;;;;;;;6208365;28;20064;-51
2022/09/02 13:31:22;;;;;;;7.35;2.30;;;;;;;;;;6209946;28;20099;-55
2022/09/02 13:34:22;;;;;;;9.55;2.85;;;;;;;;;;6207953;28;20609;-56
2022/09/02 13:37:29;;;;;;;7.83;2.77;;;;;;;;;;6209113;28;20053;-57
2022/09/02 13:40:33;;;;;;;7.28;2.50;;;;;;;;;;6207795;28;20740;-56
2022/09/02 13:43:33;;;;;;;6.05;2.60;;;;;;;;;;6211134;28;20140;-55
2022/09/02 13:46:49;;;;;;;9.53;2.77;;;;;;;;;;6210858;28;20041;-57
2022/09/02 13:49:50;;;;;;;8.63;2.30;;;;;;;;;;6210530;28;20053;-56
2022/09/02 13:52:55;;;;;;;8.98;2.03;;;;;;;;;;6210818;28;20058;-56
2022/09/02 13:55:57;;;;;;;6.53;2.25;;;;;;;;;;6209500;28;20123;-56
2022/09/02 13:58:57;;;;;;;;;;;;;;;;;;6208639;28;20089;-55
2022/09/02 14:01:58;;;;;;;8.73;2.30;;;;;;;;;;6207495;28;20258;-56
2022/09/02 14:05:07;;;;;;;7.70;2.70;;;;;;;;;;6208049;28;20515;-56
2022/09/02 14:08:13;;;;;;;6.82;2.67;;;;;;;;;;6207107;28;20587;-56
2022/09/02 14:11:17;;;;;;;4.20;2.17;;;;;;;;;;6205252;28;20097;-56
2022/09/02 14:14:23;;;;;;;13.45;2.83;;;;;;;;;;6208088;28;20191;-56
2022/09/02 14:17:25;;;;;;;9.40;3.08;;;;;;;;;;6209053;28;20136;-55
2022/09/02 14:20:26;;;;;;;9.85;3.45;;;;;;;;;;6207653;28;20145;-57
2022/09/02 14:23:32;;;;;;;6.40;2.80;;;;;;;;;;6208764;28;20050;-56
2022/09/02 14:26:37;;;;;;;9.82;2.67;;;;;;;;;;6208369;28;20073;-57
2022/09/02 14:29:43;;;;;;;10.35;3.10;;;;;;;;;;6210276;28;20038;-55
2022/09/02 14:32:44;;;;;;;9.85;3.08;;;;;;;;;;6207847;28;20516;-55
2022/09/02 14:36:14;;;;;;;11.30;3.13;;;;;;;;;;6208587;28;20060;-56
2022/09/02 14:39:16;;;;;;;8.57;2.42;;;;;;;;;;6197168;28;20046;-56
2022/09/02 14:42:17;;;;;;;9.93;2.53;;;;;;;;;;6204838;28;20065;-55
2022/09/02 14:45:25;;;;;;;8.03;2.90;;;;;;;;;;6204915;28;20814;-56
2022/09/02 14:48:27;;;;;;;6.93;2.60;;;;;;;;;;6207544;28;20080;-56
2022/09/02 14:51:42;;;;;;;6.53;2.70;;;;;;;;;;6214169;28;20144;-56
2022/09/02 14:54:49;;;;;;;8.38;3.15;;;;;;;;;;6210627;28;20058;-57
2022/09/02 14:58:01;;;;;;;17.80;4.22;;;;;;;;;;6206197;28;20910;-55
2022/09/02 15:01:01;;;;;;;7.85;3.65;;;;;;;;;;6211341;28;20048;-57
2022/09/02 15:04:02;;;;;;;9.10;3.23;;;;;;;;;;6211655;28;20553;-56
2022/09/02 15:07:03;;;;;;;8.23;3.10;;;;;;;;;;6209127;28;20045;-56
2022/09/02 15:10:06;;;;;;;8.20;3.00;;;;;;;;;;6207153;28;20053;-55
2022/09/02 15:13:13;;;;;;;11.60;3.60;;;;;;;;;;6205247;28;20045;-55
2022/09/02 15:16:14;;;;;;;8.80;3.40;;;;;;;;;;6210716;28;20447;-56
2022/09/02 15:19:15;;;;;;;6.47;3.43;;;;;;;;;;6207760;28;20054;-53
2022/09/02 15:22:16;;;;;;;13.03;3.70;;;;;;;;;;6207175;28;20475;-54
2022/09/02 15:25:17;;;;;;;15.45;3.55;;;;;;;;;;6204125;28;20756;-49
2022/09/02 15:28:17;;;;;;;10.97;3.60;;;;;;;;;;6208048;28;20041;-51
2022/09/02 15:31:18;;;;;;;8.93;3.40;;;;;;;;;;6205962;28;20489;-49
2022/09/02 15:34:20;;;;;;;;;;;;;;;;;;6207767;28;20586;-54
2022/09/02 15:37:20;;;;;;;9.63;3.40;;;;;;;;;;6217035;28;19937;-53
2022/09/02 15:40:22;;;;;;;9.87;3.60;;;;;;;;;;6212786;28;21015;-53
2022/09/02 15:43:22;;;;;;;10.90;3.55;;;;;;;;;;6205945;28;20076;-54
2022/09/02 15:46:26;;;;;;;9.00;3.53;;;;;;;;;;6221396;28;20045;-53
2022/09/02 15:49:26;;;;;;;7.78;3.55;;;;;;;;;;6210172;28;20413;-53
2022/09/02 15:52:27;;;;;;;14.23;3.40;;;;;;;;;;6193140;28;20084;-53
2022/09/02 15:55:31;;;;;;;7.63;3.20;;;;;;;;;;6185955;28;20043;-54
2022/09/02 15:58:32;;;;;;;6.10;2.92;;;;;;;;;;6186271;28;20141;-51
2022/09/02 16:01:33;;;;;;;7.03;3.10;;;;;;;;;;6186220;28;20064;-53
2022/09/02 16:04:34;;;;;;;6.07;3.08;;;;;;;;;;6190320;28;20570;-50
2022/09/02 16:07:34;;;;;;;8.03;3.63;;;;;;;;;;6196987;28;20061;-51
2022/09/02 16:10:36;;;;;;;10.60;3.37;;;;;;;;;;6183451;28;20060;-51
2022/09/02 16:13:37;;;;;;;9.07;3.67;;;;;;;;;;6186393;28;20053;-55
2022/09/02 16:16:38;;;;;;;10.73;3.80;;;;;;;;;;6186876;28;20129;-54
2022/09/02 16:19:38;;;;;;;9.93;3.57;;;;;;;;;;6187577;28;20339;-51
2022/09/02 16:22:39;;;;;;;11.80;4.00;;;;;;;;;;6190764;28;20556;-53
2022/09/02 16:25:40;;;;;;;8.53;3.73;;;;;;;;;;6188183;28;20473;-51
2022/09/02 16:28:44;;;;;;;8.67;3.30;;;;;;;;;;6186869;28;20312;-50
2022/09/02 16:31:46;;;;;;;11.38;4.15;;;;;;;;;;6187323;28;20058;-50
2022/09/02 16:34:47;;;;;;;15.90;4.07;;;;;;;;;;6183591;28;20084;-53
2022/09/02 16:37:48;;;;;;;9.67;3.60;;;;;;;;;;6188153;28;20054;-53
2022/09/02 16:40:54;;;;;;;9.33;3.40;;;;;;;;;;6186022;28;20049;-52
2022/09/02 16:43:56;;;;;;;13.25;3.58;;;;;;;;;;6197250;28;20111;-51
2022/09/02 16:46:57;;;;;;;12.70;4.47;;;;;;;;;;6194172;28;20050;-53
2022/09/02 16:49:57;;;;;;;11.40;3.83;;;;;;;;;;6195528;28;20516;-50
2022/09/02 16:52:58;;;;;;;12.90;4.23;;;;;;;;;;6169893;28;20493;-50
2022/09/02 16:55:59;;;;;;;9.03;4.37;;;;;;;;;;6194172;28;20042;-58
2022/09/02 16:59:02;;;;;;;15.13;4.65;;;;;;;;;;6191333;28;20856;-57
2022/09/02 17:02:02;;;;;;;12.25;4.70;;;;;;;;;;6188966;28;20046;-57
2022/09/02 17:05:05;;;;;;;13.97;6.27;;;;;;;;;;6195625;28;20107;-52
2022/09/02 17:08:06;;;;;;;13.65;6.47;;;;;;;;;;6186802;28;20548;-55
2022/09/02 17:11:10;;;;;;;27.58;10.57;;;;;;;;;;6185905;28;20518;-54
2022/09/02 17:14:13;;;;;;;29.50;12.15;;;;;;;;;;6195410;28;20137;-50
2022/09/02 17:17:15;;;;;;;34.00;11.63;;;;;;;;;;6189318;28;20062;-54
2022/09/02 17:20:16;;;;;;;;;;;;;;;;;;6184504;28;20135;-56
2022/09/02 17:23:17;;;;;;;14.68;4.97;;;;;;;;;;6194577;28;19929;-54
2022/09/02 17:26:19;;;;;;;12.07;5.83;;;;;;;;;;6185960;28;20062;-53
2022/09/02 17:29:22;;;;;;;13.52;5.05;;;;;;;;;;6183068;28;20054;-53
2022/09/02 17:32:24;;;;;;;21.17;8.00;;;;;;;;;;6178609;28;20891;-53
2022/09/02 17:35:25;;;;;;;13.32;4.45;;;;;;;;;;6180453;28;20050;-51
2022/09/02 17:38:26;;;;;;;18.20;5.67;;;;;;;;;;6181224;28;20054;-51
2022/09/02 17:44:47;;;;;;;13.40;5.65;;;;;;;;;;6188163;28;20149;-52
2022/09/02 17:47:48;;;;;;;13.93;5.43;;;;;;;;;;6190517;28;20506;-54
2022/09/02 17:50:49;;;;;;;22.97;6.30;;;;;;;;;;6200677;28;20508;-54
2022/09/02 17:53:50;;;;;;;20.30;7.13;;;;;;;;;;6208413;28;20058;-55
2022/09/02 17:57:09;;;;;;;16.95;6.90;;;;;;;;;;6206567;28;20038;-55
2022/09/02 18:00:14;;;;;;;17.70;7.53;;;;;;;;;;6203665;28;20161;-52
2022/09/02 18:03:52;;;;;;;18.83;7.35;;;;;;;;;;6198312;28;20398;-54
2022/09/02 18:07:03;;;;;;;21.42;7.80;;;;;;;;;;6195644;28;20072;-54
2022/09/02 18:10:04;;;;;;;16.02;7.07;;;;;;;;;;6203801;28;20053;-52
2022/09/02 18:13:08;;;;;;;14.80;6.83;;;;;;;;;;6205549;28;20060;-52
2022/09/02 18:16:28;;;;;;;17.17;7.50;;;;;;;;;;6206136;28;20092;-51
2022/09/02 18:19:44;;;;;;;15.18;7.07;;;;;;;;;;6207271;28;20042;-55
2022/09/02 18:23:03;;;;;;;15.35;7.53;;;;;;;;;;6204822;28;20050;-54
2022/09/02 18:26:16;;;;;;;16.50;7.30;;;;;;;;;;6207162;28;20180;-52
2022/09/02 18:29:26;;;;;;;17.25;7.53;;;;;;;;;;6206829;28;20908;-51